createdAt,value
2016-09-30T00:00:59.708Z,99.99
2016-09-30T00:01:59.696Z,99.99
2016-09-30T00:02:59.992Z,99.99
2016-09-30T00:03:59.669Z,99.99
2016-09-30T00:04:59.659Z,99.99
2016-09-30T00:05:59.646Z,99.99
2016-09-30T00:06:59.642Z,99.99
2016-09-30T00:07:59.623Z,99.99
2016-09-30T00:08:59.616Z,99.99
2016-09-30T00:09:59.602Z,99.99
2016-09-30T00:10:59.590Z,99.99
2016-09-30T00:11:59.579Z,99.99
2016-09-30T00:12:59.569Z,99.99
2016-09-30T00:13:59.557Z,99.99
2016-09-30T00:14:59.544Z,99.99
2016-09-30T00:15:59.536Z,99.99
2016-09-30T00:16:59.523Z,99.99
2016-09-30T00:17:59.514Z,99.99
2016-09-30T00:18:59.503Z,99.99
2016-09-30T00:19:59.490Z,99.99
2016-09-30T00:20:59.482Z,99.99
2016-09-30T00:21:59.477Z,99.99
2016-09-30T00:22:59.781Z,99.99
2016-09-30T00:23:59.449Z,99.99
2016-09-30T00:24:59.439Z,99.99
2016-09-30T00:25:59.429Z,99.99
2016-09-30T00:26:59.733Z,99.99
2016-09-30T00:27:59.404Z,99.99
2016-09-30T00:28:59.394Z,99.99
2016-09-30T00:29:59.381Z,99.99
2016-09-30T00:30:59.687Z,99.99
2016-09-30T00:31:59.357Z,99.99
2016-09-30T00:32:59.349Z,99.99
2016-09-30T00:33:59.338Z,99.99
2016-09-30T00:34:59.325Z,99.99
2016-09-30T00:35:59.321Z,99.99
2016-09-30T00:36:59.305Z,99.99
2016-09-30T00:37:59.293Z,99.99
2016-09-30T00:38:59.286Z,99.99
2016-09-30T00:39:59.269Z,99.99
2016-09-30T00:40:59.263Z,99.99
2016-09-30T00:41:59.247Z,99.99
2016-09-30T00:42:59.250Z,99.99
2016-09-30T00:43:59.238Z,99.99
2016-09-30T00:44:59.219Z,99.99
2016-09-30T00:45:59.217Z,99.99
2016-09-30T00:46:59.198Z,99.99
2016-09-30T00:47:59.503Z,99.99
2016-09-30T00:48:59.172Z,99.99
2016-09-30T00:49:59.364Z,99.99
2016-09-30T00:50:59.150Z,99.99
2016-09-30T00:51:59.135Z,99.99
2016-09-30T00:52:59.136Z,99.99
2016-09-30T00:53:59.432Z,99.99
2016-09-30T00:54:59.114Z,99.99
2016-09-30T00:55:59.527Z,99.99
2016-09-30T00:56:59.085Z,99.99
2016-09-30T00:57:59.073Z,99.99
2016-09-30T00:58:59.064Z,99.99
2016-09-30T00:59:59.057Z,99.99
2016-09-30T01:00:59.041Z,99.99
2016-09-30T01:01:59.026Z,99.99
2016-09-30T01:02:59.023Z,99.99
2016-09-30T01:03:59.006Z,99.99
2016-09-30T01:04:58.995Z,99.99
2016-09-30T01:05:58.985Z,99.99
2016-09-30T01:06:58.973Z,99.99
2016-09-30T01:07:58.964Z,99.99
2016-09-30T01:08:58.952Z,99.99
2016-09-30T01:09:58.940Z,99.99
2016-09-30T01:10:58.929Z,99.99
2016-09-30T01:11:58.917Z,99.99
2016-09-30T01:12:58.908Z,99.99
2016-09-30T01:13:58.897Z,99.99
2016-09-30T01:14:58.885Z,99.99
2016-09-30T01:15:58.874Z,99.99
2016-09-30T01:16:59.175Z,99.99
2016-09-30T01:17:58.852Z,99.99
2016-09-30T01:18:58.843Z,99.99
2016-09-30T01:19:58.833Z,99.99
2016-09-30T01:20:58.823Z,99.99
2016-09-30T01:21:58.807Z,99.99
2016-09-30T01:22:58.800Z,99.99
2016-09-30T01:23:58.787Z,99.99
2016-09-30T01:24:58.777Z,99.99
2016-09-30T01:25:58.769Z,99.99
2016-09-30T01:26:58.753Z,99.99
2016-09-30T01:27:58.748Z,99.99
2016-09-30T01:28:58.729Z,99.99
2016-09-30T01:29:59.034Z,99.99
2016-09-30T01:30:58.707Z,99.99
2016-09-30T01:31:58.699Z,99.99
2016-09-30T01:32:58.687Z,99.99
2016-09-30T01:33:58.674Z,99.99
2016-09-30T01:34:58.668Z,99.99
2016-09-30T01:35:58.654Z,99.99
2016-09-30T01:36:58.647Z,99.99
2016-09-30T01:37:58.659Z,99.99
2016-09-30T01:38:58.617Z,99.99
2016-09-30T01:39:58.609Z,99.99
2016-09-30T01:40:58.598Z,99.99
2016-09-30T01:41:58.588Z,99.99
2016-09-30T01:42:58.577Z,99.99
2016-09-30T01:43:58.569Z,99.99
2016-09-30T01:44:58.554Z,99.99
2016-09-30T01:45:58.908Z,99.99
2016-09-30T01:46:58.559Z,99.99
2016-09-30T01:47:58.521Z,99.99
2016-09-30T01:48:58.509Z,99.99
2016-09-30T01:49:58.814Z,99.99
2016-09-30T01:50:58.803Z,99.99
2016-09-30T01:51:58.789Z,99.99
2016-09-30T01:52:58.471Z,99.99
2016-09-30T01:53:58.452Z,99.99
2016-09-30T01:54:58.761Z,99.99
2016-09-30T01:55:58.487Z,99.99
2016-09-30T01:56:58.422Z,99.99
2016-09-30T01:57:58.409Z,99.99
2016-09-30T01:58:58.396Z,99.99
2016-09-30T01:59:58.387Z,99.99
2016-09-30T02:00:58.374Z,99.99
2016-09-30T02:01:58.677Z,99.99
2016-09-30T02:02:58.354Z,99.99
2016-09-30T02:03:58.339Z,99.99
2016-09-30T02:04:58.332Z,99.99
2016-09-30T02:05:58.632Z,99.99
2016-09-30T02:06:58.307Z,99.99
2016-09-30T02:07:58.299Z,99.99
2016-09-30T02:08:58.282Z,99.99
2016-09-30T02:09:58.278Z,99.99
2016-09-30T02:10:58.264Z,99.99
2016-09-30T02:11:58.252Z,99.99
2016-09-30T02:12:58.241Z,99.99
2016-09-30T02:13:58.229Z,99.99
2016-09-30T02:14:58.220Z,99.99
2016-09-30T02:15:58.243Z,99.99
2016-09-30T02:16:58.197Z,99.99
2016-09-30T02:17:58.185Z,99.99
2016-09-30T02:18:58.174Z,99.99
2016-09-30T02:19:58.163Z,99.99
2016-09-30T02:20:58.149Z,99.99
2016-09-30T02:21:58.140Z,99.99
2016-09-30T02:22:58.159Z,99.99
2016-09-30T02:23:58.124Z,99.99
2016-09-30T02:24:58.114Z,99.99
2016-09-30T02:25:58.095Z,99.99
2016-09-30T02:26:58.091Z,99.99
2016-09-30T02:27:58.077Z,99.99
2016-09-30T02:28:58.085Z,99.99
2016-09-30T02:29:58.052Z,99.99
2016-09-30T02:30:58.036Z,99.99
2016-09-30T02:31:58.027Z,99.99
2016-09-30T02:32:58.018Z,99.99
2016-09-30T02:33:58.014Z,99.99
2016-09-30T02:34:57.996Z,99.99
2016-09-30T02:35:57.990Z,99.99
2016-09-30T02:36:57.975Z,99.99
2016-09-30T02:37:57.962Z,99.99
2016-09-30T02:38:57.950Z,99.99
2016-09-30T02:39:57.940Z,99.99
2016-09-30T02:40:57.926Z,99.99
2016-09-30T02:41:57.916Z,99.99
2016-09-30T02:42:57.905Z,99.99
2016-09-30T02:43:57.895Z,99.99
2016-09-30T02:44:57.885Z,99.99
2016-09-30T02:45:57.869Z,99.99
2016-09-30T02:46:57.859Z,99.99
2016-09-30T02:47:57.850Z,99.99
2016-09-30T02:48:57.843Z,99.99
2016-09-30T02:50:57.816Z,99.99
2016-09-30T02:51:57.805Z,99.99
2016-09-30T02:52:57.792Z,99.99
2016-09-30T02:53:57.782Z,99.99
2016-09-30T02:54:57.773Z,99.99
2016-09-30T02:55:57.773Z,99.99
2016-09-30T02:56:57.800Z,99.99
2016-09-30T02:57:57.743Z,99.99
2016-09-30T02:58:57.726Z,99.99
2016-09-30T02:59:57.716Z,99.99
2016-09-30T03:00:57.708Z,99.99
2016-09-30T03:01:57.694Z,99.99
2016-09-30T03:02:57.682Z,99.99
2016-09-30T03:03:57.669Z,99.99
2016-09-30T03:04:57.660Z,99.99
2016-09-30T03:05:57.651Z,99.99
2016-09-30T03:06:57.975Z,99.99
2016-09-30T03:07:57.637Z,99.99
2016-09-30T03:08:57.623Z,99.99
2016-09-30T03:09:57.609Z,99.99
2016-09-30T03:10:57.601Z,99.99
2016-09-30T03:11:57.608Z,99.99
2016-09-30T03:12:57.575Z,99.99
2016-09-30T03:13:57.558Z,99.99
2016-09-30T03:14:57.550Z,99.99
2016-09-30T03:15:57.546Z,99.99
2016-09-30T03:16:57.527Z,99.99
2016-09-30T03:17:57.521Z,99.99
2016-09-30T03:18:57.504Z,99.99
2016-09-30T03:19:57.496Z,99.99
2016-09-30T03:20:57.806Z,99.99
2016-09-30T03:21:57.473Z,99.99
2016-09-30T03:22:57.470Z,99.99
2016-09-30T03:23:57.453Z,99.99
2016-09-30T03:24:57.444Z,99.99
2016-09-30T03:25:57.744Z,99.99
2016-09-30T03:26:57.418Z,99.99
2016-09-30T03:27:57.722Z,99.99
2016-09-30T03:28:57.398Z,99.99
2016-09-30T03:29:57.390Z,99.99
2016-09-30T03:30:57.381Z,99.99
2016-09-30T03:31:57.365Z,99.99
2016-09-30T03:32:57.355Z,99.99
2016-09-30T03:33:57.345Z,99.99
2016-09-30T03:34:57.332Z,99.99
2016-09-30T03:35:57.632Z,99.99
2016-09-30T03:36:57.329Z,99.99
2016-09-30T03:37:57.297Z,99.99
2016-09-30T03:38:57.285Z,99.99
2016-09-30T03:39:57.272Z,99.99
2016-09-30T03:40:57.265Z,99.99
2016-09-30T03:41:57.254Z,99.99
2016-09-30T03:42:57.241Z,99.99
2016-09-30T03:43:57.226Z,99.99
2016-09-30T03:44:57.219Z,99.99
2016-09-30T03:45:57.205Z,99.99
2016-09-30T03:46:57.195Z,99.99
2016-09-30T03:47:57.187Z,99.99
2016-09-30T03:48:57.174Z,99.99
2016-09-30T03:49:57.162Z,99.99
2016-09-30T03:50:57.151Z,99.99
2016-09-30T03:51:57.140Z,99.99
2016-09-30T03:52:57.129Z,99.99
2016-09-30T03:53:57.119Z,99.99
2016-09-30T03:54:57.111Z,99.99
2016-09-30T03:55:57.096Z,99.99
2016-09-30T03:56:57.082Z,99.99
2016-09-30T03:57:57.073Z,99.99
2016-09-30T03:58:57.063Z,99.99
2016-09-30T03:59:57.050Z,99.99
2016-09-30T04:00:57.040Z,99.99
2016-09-30T04:01:57.042Z,99.99
2016-09-30T04:02:57.019Z,99.99
2016-09-30T04:03:57.007Z,99.99
2016-09-30T04:04:56.997Z,99.99
2016-09-30T04:05:57.297Z,99.99
2016-09-30T04:06:56.976Z,99.99
2016-09-30T04:07:56.965Z,99.99
2016-09-30T04:08:56.950Z,99.99
2016-09-30T04:09:56.938Z,99.99
2016-09-30T04:10:57.131Z,99.99
2016-09-30T04:11:57.231Z,99.99
2016-09-30T04:12:56.910Z,99.99
2016-09-30T04:13:56.899Z,99.99
2016-09-30T04:14:56.884Z,99.99
2016-09-30T04:15:56.874Z,99.99
2016-09-30T04:16:57.222Z,99.99
2016-09-30T04:17:57.178Z,99.99
2016-09-30T04:18:56.841Z,99.99
2016-09-30T04:19:57.153Z,99.99
2016-09-30T04:20:56.819Z,99.99
2016-09-30T04:21:56.810Z,99.99
2016-09-30T04:22:56.800Z,99.99
2016-09-30T04:23:56.787Z,99.99
2016-09-30T04:24:56.775Z,99.99
2016-09-30T04:25:57.080Z,99.99
2016-09-30T04:26:56.754Z,99.99
2016-09-30T04:27:57.083Z,99.99
2016-09-30T04:28:57.062Z,99.99
2016-09-30T04:29:56.724Z,99.99
2016-09-30T04:30:56.714Z,99.99
2016-09-30T04:31:56.699Z,99.99
2016-09-30T04:32:56.999Z,99.99
2016-09-30T04:33:56.678Z,99.99
2016-09-30T04:34:56.668Z,99.99
2016-09-30T04:35:56.653Z,99.99
2016-09-30T04:36:56.645Z,99.99
2016-09-30T04:37:56.633Z,99.99
2016-09-30T04:38:56.622Z,99.99
2016-09-30T04:39:56.614Z,99.99
2016-09-30T04:40:56.601Z,99.99
2016-09-30T04:41:56.590Z,99.99
2016-09-30T04:42:56.892Z,99.99
2016-09-30T04:43:56.572Z,99.99
2016-09-30T04:44:56.875Z,99.99
2016-09-30T04:45:56.545Z,99.99
2016-09-30T04:46:56.849Z,99.99
2016-09-30T04:47:56.523Z,99.99
2016-09-30T04:48:56.511Z,99.99
2016-09-30T04:49:56.498Z,99.99
2016-09-30T04:50:56.492Z,99.99
2016-09-30T04:51:56.478Z,99.99
2016-09-30T04:52:56.783Z,99.99
2016-09-30T04:53:56.454Z,99.99
2016-09-30T04:54:56.760Z,99.99
2016-09-30T04:55:56.433Z,99.99
2016-09-30T04:56:56.425Z,99.99
2016-09-30T04:57:56.411Z,99.99
2016-09-30T04:58:56.400Z,99.99
2016-09-30T04:59:56.390Z,99.99
2016-09-30T05:00:56.378Z,99.99
2016-09-30T05:01:56.366Z,99.99
2016-09-30T05:02:56.360Z,99.99
2016-09-30T05:03:56.343Z,99.99
2016-09-30T05:04:56.354Z,99.99
2016-09-30T05:05:56.323Z,99.99
2016-09-30T05:06:56.313Z,99.99
2016-09-30T05:07:56.303Z,99.99
2016-09-30T05:08:56.294Z,99.99
2016-09-30T05:09:56.277Z,99.99
2016-09-30T05:10:56.316Z,99.99
2016-09-30T05:11:56.585Z,99.99
2016-09-30T05:12:56.254Z,99.99
2016-09-30T05:13:56.236Z,99.99
2016-09-30T05:14:56.228Z,99.99
2016-09-30T05:15:56.212Z,99.99
2016-09-30T05:16:56.200Z,99.99
2016-09-30T05:17:56.191Z,99.99
2016-09-30T05:18:56.179Z,99.99
2016-09-30T05:19:56.165Z,99.99
2016-09-30T05:20:56.159Z,99.99
2016-09-30T05:21:56.147Z,99.99
2016-09-30T05:22:56.131Z,99.99
2016-09-30T05:23:56.128Z,99.99
2016-09-30T05:24:56.111Z,99.99
2016-09-30T05:25:56.104Z,99.99
2016-09-30T05:26:56.088Z,99.99
2016-09-30T05:27:56.390Z,99.99
2016-09-30T05:28:56.071Z,99.99
2016-09-30T05:29:56.055Z,99.99
2016-09-30T05:30:56.041Z,99.99
2016-09-30T05:31:56.041Z,99.99
2016-09-30T05:32:56.023Z,99.99
2016-09-30T05:33:56.325Z,99.99
2016-09-30T05:34:55.994Z,99.99
2016-09-30T05:35:55.986Z,99.99
2016-09-30T05:36:55.974Z,99.99
2016-09-30T05:37:55.967Z,99.99
2016-09-30T05:38:55.953Z,99.99
2016-09-30T05:39:56.261Z,99.99
2016-09-30T05:40:56.248Z,99.99
2016-09-30T05:41:55.929Z,99.99
2016-09-30T05:42:55.913Z,99.99
2016-09-30T05:43:55.897Z,99.99
2016-09-30T05:44:55.883Z,99.99
2016-09-30T05:45:55.883Z,99.99
2016-09-30T05:46:55.864Z,99.99
2016-09-30T05:47:55.849Z,99.99
2016-09-30T05:48:55.836Z,99.99
2016-09-30T05:49:55.860Z,99.99
2016-09-30T05:50:55.818Z,99.99
2016-09-30T05:51:55.807Z,99.99
2016-09-30T05:52:55.793Z,99.99
2016-09-30T05:53:55.784Z,99.99
2016-09-30T05:54:55.771Z,99.99
2016-09-30T05:55:55.770Z,99.99
2016-09-30T05:56:55.750Z,99.99
2016-09-30T05:57:55.738Z,99.99
2016-09-30T05:58:55.724Z,99.99
2016-09-30T05:59:55.714Z,99.99
2016-09-30T06:00:55.705Z,99.99
2016-09-30T06:01:55.691Z,99.99
2016-09-30T06:02:55.680Z,99.99
2016-09-30T06:03:56.035Z,99.99
2016-09-30T06:04:55.660Z,99.99
2016-09-30T06:05:55.644Z,99.99
2016-09-30T06:06:55.635Z,99.99
2016-09-30T06:07:55.627Z,99.99
2016-09-30T06:08:55.815Z,99.99
2016-09-30T06:09:55.606Z,99.99
2016-09-30T06:10:55.911Z,99.99
2016-09-30T06:11:55.581Z,99.99
2016-09-30T06:12:55.568Z,99.99
2016-09-30T06:13:55.869Z,99.99
2016-09-30T06:14:55.543Z,99.99
2016-09-30T06:15:55.538Z,99.99
2016-09-30T06:16:55.521Z,99.99
2016-09-30T06:17:55.828Z,99.99
2016-09-30T06:18:55.510Z,99.99
2016-09-30T06:19:55.490Z,99.99
2016-09-30T06:20:55.480Z,99.99
2016-09-30T06:21:55.467Z,99.99
2016-09-30T06:22:55.461Z,99.99
2016-09-30T06:23:55.759Z,99.99
2016-09-30T06:24:55.432Z,99.99
2016-09-30T06:25:55.420Z,99.99
2016-09-30T06:26:55.414Z,99.99
2016-09-30T06:27:55.401Z,99.99
2016-09-30T06:28:55.389Z,99.99
2016-09-30T06:29:55.382Z,99.99
2016-09-30T06:30:55.684Z,99.99
2016-09-30T06:31:55.358Z,99.99
2016-09-30T06:32:55.352Z,99.99
2016-09-30T06:33:55.335Z,99.99
2016-09-30T06:34:55.321Z,99.99
2016-09-30T06:35:55.317Z,99.99
2016-09-30T06:36:55.303Z,99.99
2016-09-30T06:37:55.296Z,99.99
2016-09-30T06:38:55.473Z,99.99
2016-09-30T06:39:55.270Z,99.99
2016-09-30T06:40:55.264Z,99.99
2016-09-30T06:41:55.249Z,99.99
2016-09-30T06:42:55.234Z,99.99
2016-09-30T06:43:55.238Z,99.99
2016-09-30T06:44:55.216Z,99.99
2016-09-30T06:45:55.517Z,99.99
2016-09-30T06:46:55.195Z,99.99
2016-09-30T06:47:55.181Z,99.99
2016-09-30T06:48:55.173Z,99.99
2016-09-30T06:49:55.159Z,99.99
2016-09-30T06:50:55.666Z,99.99
2016-09-30T06:51:55.140Z,99.99
2016-09-30T06:52:55.128Z,99.99
2016-09-30T06:53:55.125Z,99.99
2016-09-30T06:54:55.106Z,99.99
2016-09-30T06:55:55.097Z,99.99
2016-09-30T06:56:55.084Z,99.99
2016-09-30T06:57:55.081Z,99.99
2016-09-30T06:58:55.070Z,99.99
2016-09-30T06:59:55.054Z,99.99
2016-09-30T07:00:55.045Z,99.99
2016-09-30T07:01:55.359Z,99.99
2016-09-30T07:02:55.021Z,99.99
2016-09-30T07:03:55.011Z,99.99
2016-09-30T07:04:55.000Z,99.99
2016-09-30T07:05:54.984Z,99.99
2016-09-30T07:06:54.974Z,99.99
2016-09-30T07:07:54.961Z,99.99
2016-09-30T07:08:54.954Z,99.99
2016-09-30T07:09:54.943Z,99.99
2016-09-30T07:10:54.932Z,99.99
2016-09-30T07:11:54.918Z,99.99
2016-09-30T07:12:54.909Z,99.99
2016-09-30T07:13:54.899Z,99.99
2016-09-30T07:14:54.897Z,99.99
2016-09-30T07:15:54.879Z,99.99
2016-09-30T07:16:55.187Z,99.99
2016-09-30T07:17:54.863Z,99.99
2016-09-30T07:18:54.851Z,99.99
2016-09-30T07:19:55.144Z,99.99
2016-09-30T07:20:54.821Z,99.99
2016-09-30T07:21:54.814Z,99.99
2016-09-30T07:22:54.798Z,99.99
2016-09-30T07:23:54.791Z,99.99
2016-09-30T07:24:54.781Z,99.99
2016-09-30T07:25:54.773Z,99.99
2016-09-30T07:26:54.754Z,99.99
2016-09-30T07:27:54.745Z,99.99
2016-09-30T07:28:54.734Z,99.99
2016-09-30T07:29:54.722Z,99.99
2016-09-30T07:30:54.715Z,99.99
2016-09-30T07:31:54.702Z,99.99
2016-09-30T07:32:54.697Z,99.99
2016-09-30T07:33:54.697Z,99.99
2016-09-30T07:34:54.982Z,99.99
2016-09-30T07:35:54.662Z,99.99
2016-09-30T07:36:54.650Z,99.99
2016-09-30T07:37:54.642Z,99.99
2016-09-30T07:38:54.627Z,99.99
2016-09-30T07:39:54.621Z,99.99
2016-09-30T07:40:54.609Z,99.99
2016-09-30T07:41:54.596Z,99.99
2016-09-30T07:42:54.587Z,99.99
2016-09-30T07:43:54.575Z,99.99
2016-09-30T07:44:54.567Z,99.99
2016-09-30T07:45:54.554Z,99.99
2016-09-30T07:46:54.860Z,99.99
2016-09-30T07:47:54.534Z,99.99
2016-09-30T07:48:54.553Z,99.99
2016-09-30T07:49:54.513Z,99.99
2016-09-30T07:50:54.500Z,99.99
2016-09-30T07:51:54.490Z,99.99
2016-09-30T07:52:54.684Z,99.99
2016-09-30T07:53:54.472Z,99.99
2016-09-30T07:54:54.461Z,99.99
2016-09-30T07:55:54.761Z,99.99
2016-09-30T07:56:54.440Z,99.99
2016-09-30T07:57:54.428Z,99.99
2016-09-30T07:59:54.727Z,99.99
2016-09-30T08:00:54.400Z,99.99
2016-09-30T08:01:54.387Z,99.99
2016-09-30T08:02:54.381Z,99.99
2016-09-30T08:03:54.372Z,99.99
2016-09-30T08:04:54.358Z,99.99
2016-09-30T08:05:54.359Z,99.99
2016-09-30T08:06:54.336Z,99.99
2016-09-30T08:07:54.327Z,99.99
2016-09-30T08:08:54.635Z,99.99
2016-09-30T08:09:54.308Z,99.99
2016-09-30T08:10:54.295Z,99.99
2016-09-30T08:11:54.292Z,99.99
2016-09-30T08:12:54.276Z,99.99
2016-09-30T08:13:54.265Z,99.99
2016-09-30T08:14:54.265Z,99.99
2016-09-30T08:15:54.249Z,99.99
2016-09-30T08:16:54.239Z,99.99
2016-09-30T08:17:54.230Z,99.99
2016-09-30T08:18:54.217Z,99.99
2016-09-30T08:19:54.219Z,99.99
2016-09-30T08:20:54.198Z,99.99
2016-09-30T08:21:54.187Z,99.99
2016-09-30T08:22:54.195Z,99.99
2016-09-30T08:23:54.168Z,99.99
2016-09-30T08:24:54.162Z,99.99
2016-09-30T08:25:54.163Z,99.99
2016-09-30T08:26:54.449Z,99.99
2016-09-30T08:27:54.128Z,99.99
2016-09-30T08:28:54.113Z,99.99
2016-09-30T08:29:54.109Z,99.99
2016-09-30T08:30:54.096Z,99.99
2016-09-30T08:31:54.087Z,99.99
2016-09-30T08:32:54.089Z,99.99
2016-09-30T08:33:54.066Z,99.99
2016-09-30T08:34:54.055Z,99.99
2016-09-30T08:35:54.050Z,99.99
2016-09-30T08:36:54.037Z,99.99
2016-09-30T08:37:54.028Z,99.99
2016-09-30T08:38:54.017Z,99.99
2016-09-30T08:39:54.007Z,99.99
2016-09-30T08:40:54.000Z,99.99
2016-09-30T08:41:53.986Z,99.99
2016-09-30T08:42:53.980Z,99.99
2016-09-30T08:43:53.972Z,99.99
2016-09-30T08:44:54.272Z,99.99
2016-09-30T08:45:53.952Z,99.99
2016-09-30T08:46:54.252Z,99.99
2016-09-30T08:47:53.928Z,99.99
2016-09-30T08:48:53.920Z,99.99
2016-09-30T08:49:53.914Z,99.99
2016-09-30T08:50:54.101Z,99.99
2016-09-30T08:51:53.887Z,99.99
2016-09-30T08:52:53.884Z,99.99
2016-09-30T08:53:53.870Z,99.99
2016-09-30T08:54:53.859Z,99.19
2016-09-30T08:55:53.849Z,99.63
2016-09-30T08:56:53.837Z,99.99
2016-09-30T08:57:54.144Z,99.01
2016-09-30T08:58:53.822Z,99.58
2016-09-30T08:59:53.814Z,99.58
2016-09-30T09:00:53.803Z,99.01
2016-09-30T09:01:53.791Z,98.33
2016-09-30T09:02:53.785Z,98.62
2016-09-30T09:03:53.774Z,98.62
2016-09-30T09:04:53.763Z,98.33
2016-09-30T09:05:53.757Z,98.33
2016-09-30T09:06:53.752Z,97.56
2016-09-30T09:07:54.051Z,97.76
2016-09-30T09:08:53.721Z,97.18
2016-09-30T09:09:53.722Z,96.8
2016-09-30T09:10:53.706Z,96.51
2016-09-30T09:11:53.697Z,96.66
2016-09-30T09:12:53.691Z,96.18
2016-09-30T09:13:53.679Z,95.12
2016-09-30T09:14:53.670Z,95.7
2016-09-30T09:15:53.711Z,94.84
2016-09-30T09:16:53.653Z,94.26
2016-09-30T09:17:53.687Z,93.97
2016-09-30T09:18:53.658Z,94.35
2016-09-30T09:19:53.624Z,94.35
2016-09-30T09:20:53.613Z,93.15
2016-09-30T09:21:53.607Z,93.06
2016-09-30T09:22:53.594Z,93.88
2016-09-30T09:23:53.909Z,92.68
2016-09-30T09:24:53.577Z,92.29
2016-09-30T09:25:53.586Z,91.24
2016-09-30T09:26:53.560Z,90.85
2016-09-30T09:27:53.551Z,90.28
2016-09-30T09:28:53.541Z,91.91
2016-09-30T09:29:53.535Z,89.79
2016-09-30T09:30:53.524Z,89.99
2016-09-30T09:31:53.514Z,90.08
2016-09-30T09:32:53.507Z,89.79
2016-09-30T09:33:53.500Z,91.33
2016-09-30T09:34:53.490Z,90.75
2016-09-30T09:35:53.483Z,90.75
2016-09-30T09:36:53.492Z,91.24
2016-09-30T09:37:53.792Z,90.28
2016-09-30T09:38:53.782Z,89.7
2016-09-30T09:39:53.463Z,90.18
2016-09-30T09:40:53.443Z,90.22
2016-09-30T09:41:53.430Z,89.84
2016-09-30T09:42:53.424Z,90.32
2016-09-30T09:43:53.414Z,89.26
2016-09-30T09:44:53.717Z,90.03
2016-09-30T09:45:53.399Z,88.4
2016-09-30T09:46:53.710Z,87.92
2016-09-30T09:47:53.382Z,88.31
2016-09-30T09:48:53.688Z,87.92
2016-09-30T09:49:53.365Z,88.65
2016-09-30T09:50:53.361Z,87.98
2016-09-30T09:51:53.351Z,88.4
2016-09-30T09:52:53.341Z,87.82
2016-09-30T09:53:53.332Z,87.98
2016-09-30T09:54:53.329Z,88.45
2016-09-30T09:55:53.316Z,87.98
2016-09-30T09:56:53.305Z,87.68
2016-09-30T09:57:53.301Z,87.49
2016-09-30T09:58:53.293Z,87.92
2016-09-30T09:59:53.283Z,88.59
2016-09-30T10:00:53.587Z,88.21
2016-09-30T10:01:53.267Z,86.96
2016-09-30T10:02:53.258Z,86.77
2016-09-30T10:03:53.249Z,87.63
2016-09-30T10:04:53.556Z,86.96
2016-09-30T10:05:53.549Z,86
2016-09-30T10:06:53.222Z,86.19
2016-09-30T10:07:53.231Z,86.29
2016-09-30T10:08:53.208Z,85.62
2016-09-30T10:09:53.202Z,86.19
2016-09-30T10:10:53.505Z,85.62
2016-09-30T10:11:53.184Z,86.38
2016-09-30T10:12:53.175Z,85.91
2016-09-30T10:13:53.168Z,86.58
2016-09-30T10:14:53.164Z,86.77
2016-09-30T10:15:53.151Z,86.29
2016-09-30T10:16:53.143Z,86.81
2016-09-30T10:17:53.134Z,86.62
2016-09-30T10:18:53.127Z,86.33
2016-09-30T10:19:53.120Z,86.24
2016-09-30T10:20:53.116Z,85.66
2016-09-30T10:21:53.118Z,84.03
2016-09-30T10:22:53.093Z,83.69
2016-09-30T10:23:53.109Z,84.6
2016-09-30T10:24:53.078Z,83.78
2016-09-30T10:25:53.069Z,82.82
2016-09-30T10:26:53.395Z,83.78
2016-09-30T10:27:53.373Z,82.97
2016-09-30T10:28:53.049Z,83.4
2016-09-30T10:29:53.048Z,83.97
2016-09-30T10:30:53.032Z,83.4
2016-09-30T10:31:53.031Z,83.2
2016-09-30T10:32:53.015Z,81.86
2016-09-30T10:33:53.011Z,81.28
2016-09-30T10:34:53.002Z,81.67
2016-09-30T10:35:53.001Z,81.09
2016-09-30T10:36:52.986Z,81.48
2016-09-30T10:37:52.977Z,82.01
2016-09-30T10:38:52.972Z,82.4
2016-09-30T10:39:52.960Z,83.16
2016-09-30T10:40:52.954Z,82.87
2016-09-30T10:41:52.949Z,83.11
2016-09-30T10:42:52.939Z,82.92
2016-09-30T10:43:52.950Z,81.38
2016-09-30T10:44:52.926Z,81.57
2016-09-30T10:45:52.919Z,80.13
2016-09-30T10:46:52.908Z,80.99
2016-09-30T10:47:53.223Z,81.09
2016-09-30T10:48:52.894Z,80.99
2016-09-30T10:49:52.891Z,81.38
2016-09-30T10:50:53.082Z,82.24
2016-09-30T10:51:52.874Z,81.19
2016-09-30T10:52:52.865Z,79.75
2016-09-30T10:53:52.857Z,80.04
2016-09-30T10:54:52.849Z,80.22
2016-09-30T10:55:52.844Z,81.67
2016-09-30T10:56:52.837Z,80.71
2016-09-30T10:57:52.827Z,80.22
2016-09-30T10:58:52.818Z,80.22
2016-09-30T10:59:52.812Z,80.8
2016-09-30T11:00:52.803Z,80.61
2016-09-30T11:01:52.803Z,80.04
2016-09-30T11:02:52.806Z,79.55
2016-09-30T11:03:52.782Z,79.55
2016-09-30T11:04:52.774Z,79.36
2016-09-30T11:05:52.771Z,79.27
2016-09-30T11:06:52.818Z,78.4
2016-09-30T11:07:52.763Z,77.44
2016-09-30T11:08:52.746Z,78.11
2016-09-30T11:09:52.740Z,77.25
2016-09-30T11:10:52.732Z,77.44
2016-09-30T11:11:52.727Z,77.83
2016-09-30T11:12:52.713Z,78.59
2016-09-30T11:13:53.028Z,77.73
2016-09-30T11:14:53.017Z,76.86
2016-09-30T11:15:53.008Z,76.57
2016-09-30T11:16:52.686Z,76.48
2016-09-30T11:17:52.681Z,78.11
2016-09-30T11:18:52.673Z,77.34
2016-09-30T11:19:52.980Z,77.44
2016-09-30T11:20:52.975Z,77.15
2016-09-30T11:21:52.652Z,76.96
2016-09-30T11:22:52.641Z,77.44
2016-09-30T11:23:52.635Z,76.73
2016-09-30T11:24:52.628Z,77.59
2016-09-30T11:25:52.624Z,77.21
2016-09-30T11:26:52.620Z,77.78
2016-09-30T11:27:52.603Z,78.08
2016-09-30T11:28:52.598Z,78.84
2016-09-30T11:29:52.590Z,78.94
2016-09-30T11:30:52.581Z,78.84
2016-09-30T11:31:52.575Z,78.78
2016-09-30T11:32:52.571Z,77.15
2016-09-30T11:33:52.569Z,77.44
2016-09-30T11:34:52.550Z,77.5
2016-09-30T11:35:52.547Z,77.01
2016-09-30T11:36:52.540Z,76.25
2016-09-30T11:37:52.534Z,75.57
2016-09-30T11:38:52.522Z,74.17
2016-09-30T11:39:52.515Z,74.55
2016-09-30T11:40:52.822Z,75.13
2016-09-30T11:41:52.508Z,72.77
2016-09-30T11:42:52.488Z,72.29
2016-09-30T11:43:52.489Z,71.84
2016-09-30T11:44:52.477Z,70.88
2016-09-30T11:45:52.477Z,70.68
2016-09-30T11:46:52.841Z,70.78
2016-09-30T11:47:52.463Z,70.84
2016-09-30T11:48:52.455Z,71.61
2016-09-30T11:49:52.444Z,69.98
2016-09-30T11:50:52.437Z,70.37
2016-09-30T11:51:52.433Z,69.6
2016-09-30T11:52:52.431Z,68.35
2016-09-30T11:53:52.420Z,68.54
2016-09-30T11:54:52.415Z,69.95
2016-09-30T11:55:52.408Z,70.62
2016-09-30T11:56:52.403Z,70.33
2016-09-30T11:57:52.394Z,69.37
2016-09-30T11:58:52.387Z,69.31
2016-09-30T11:59:52.384Z,69.5
2016-09-30T12:00:52.379Z,69.98
2016-09-30T12:01:52.371Z,69.5
2016-09-30T12:02:52.363Z,70.01
2016-09-30T12:03:52.352Z,68.96
2016-09-30T12:04:52.352Z,69.06
2016-09-30T12:05:52.346Z,69.73
2016-09-30T12:06:52.343Z,67.26
2016-09-30T12:07:52.350Z,67.93
2016-09-30T12:08:52.326Z,67.83
2016-09-30T12:09:52.642Z,67.26
2016-09-30T12:10:52.316Z,67.29
2016-09-30T12:11:52.651Z,65.94
2016-09-30T12:12:52.633Z,65.66
2016-09-30T12:13:52.307Z,65.56
2016-09-30T12:14:52.295Z,64.69
2016-09-30T12:15:52.289Z,66.3
2016-09-30T12:16:52.284Z,67.16
2016-09-30T12:17:52.275Z,66.01
2016-09-30T12:18:52.271Z,67.32
2016-09-30T12:19:52.604Z,68.19
2016-09-30T12:20:52.582Z,69.34
2016-09-30T12:21:52.284Z,68.48
2016-09-30T12:22:52.575Z,68.19
2016-09-30T12:23:52.566Z,68.35
2016-09-30T12:24:52.239Z,68.44
2016-09-30T12:25:52.231Z,66.71
2016-09-30T12:26:52.228Z,67.96
2016-09-30T12:27:52.224Z,69.4
2016-09-30T12:28:52.215Z,68.25
2016-09-30T12:29:52.203Z,68.63
2016-09-30T12:30:52.202Z,69.18
2016-09-30T12:31:52.511Z,69.56
2016-09-30T12:32:52.182Z,69.75
2016-09-30T12:33:52.185Z,70.43
2016-09-30T12:34:52.174Z,70.04
2016-09-30T12:35:52.164Z,69.81
2016-09-30T12:36:52.159Z,69.72
2016-09-30T12:37:52.152Z,69.81
2016-09-30T12:38:52.148Z,70.29
2016-09-30T12:39:52.137Z,71.25
2016-09-30T12:40:52.131Z,69.81
2016-09-30T12:41:52.124Z,69.91
2016-09-30T12:42:52.119Z,69.81
2016-09-30T12:43:52.107Z,69.91
2016-09-30T12:44:52.120Z,69.81
2016-09-30T12:45:52.097Z,67.64
2016-09-30T12:46:52.087Z,66.33
2016-09-30T12:47:52.328Z,64.34
2016-09-30T12:48:52.079Z,63.79
2016-09-30T12:49:52.062Z,63.06
2016-09-30T12:50:52.262Z,63.25
2016-09-30T12:51:52.054Z,62.67
2016-09-30T12:52:52.044Z,61.9
2016-09-30T12:53:52.042Z,62
2016-09-30T12:54:52.349Z,60.77
2016-09-30T12:55:52.029Z,60.2